Time;durP1;ratioP1;P1;durP2;ratioP2;P2;SDS_P1;SDS_P2;PMS_P1;PMS_P2;Temp;Humidity;BMP_temperature;BMP_pressure;BME280_temperature;BME280_humidity;BME280_pressure;Samples;Min_cycle;Max_cycle;Signal;HPM_P1;HPM_P2
2023/06/07 00:00:28;;;;;;;23.87;6.87;;;;;;;21.31;64.17;99814.25;5057754;28;20991;-58
2023/06/07 00:02:59;;;;;;;17.23;7.37;;;;;;;21.51;64.49;99822.69;5043525;28;20699;-59
2023/06/07 00:05:31;;;;;;;17.67;6.70;;;;;;;21.69;64.08;99831.19;5052454;28;20946;-61
2023/06/07 00:08:01;;;;;;;35.47;7.33;;;;;;;21.79;63.26;99832.28;5052139;28;20297;-60
2023/06/07 00:10:33;;;;;;;15.77;5.20;;;;;;;21.84;61.84;99829.28;5040896;28;20757;-60
2023/06/07 00:13:05;;;;;;;33.33;6.53;;;;;;;21.77;62.19;99791.66;5050915;28;20308;-61
2023/06/07 00:15:35;;;;;;;23.37;6.07;;;;;;;22.06;61.71;99821.47;5040626;28;20313;-60
2023/06/07 00:18:07;;;;;;;23.17;5.47;;;;;;;22.10;60.88;99803.50;5051137;28;20377;-61
2023/06/07 00:20:38;;;;;;;16.07;5.10;;;;;;;22.34;60.88;99825.72;5041976;28;20291;-60
2023/06/07 00:23:10;;;;;;;12.23;4.50;;;;;;;22.51;60.13;99810.31;5051462;28;20283;-61
2023/06/07 00:25:42;;;;;;;16.13;4.17;;;;;;;22.59;57.75;99813.28;5041810;28;20097;-60
2023/06/07 00:28:13;;;;;;;12.70;4.53;;;;;;;22.56;57.44;99810.84;5051838;28;20880;-60
2023/06/07 00:30:43;;;;;;;13.57;4.13;;;;;;;22.18;57.65;99758.56;5040882;28;20044;-62
2023/06/07 00:33:14;;;;;;;11.93;3.93;;;;;;;22.66;57.55;99814.50;5051183;28;20282;-60
2023/06/07 00:35:45;;;;;;;17.00;3.47;;;;;;;22.75;56.02;99818.31;5041349;28;20547;-59
2023/06/07 00:38:15;;;;;;;14.80;3.07;;;;;;;22.70;56.34;99785.88;5040177;28;20049;-58
2023/06/07 00:40:47;;;;;;;17.57;4.57;;;;;;;23.00;56.45;99817.38;5046405;28;20877;-60
2023/06/07 00:43:18;;;;;;;15.87;3.10;;;;;;;23.14;56.25;99814.53;5060292;28;20073;-62
2023/06/07 00:45:49;;;;;;;17.43;3.70;;;;;;;23.17;53.90;99814.28;5050559;28;20745;-61
2023/06/07 00:48:20;;;;;;;6.53;3.03;;;;;;;23.11;53.20;99814.75;5061829;28;20142;-60
2023/06/07 00:50:52;;;;;;;8.97;2.90;;;;;;;23.24;53.60;99812.84;5050554;28;20564;-59
2023/06/07 00:53:22;;;;;;;12.87;2.90;;;;;;;23.40;53.44;99809.00;5040288;28;21244;-60
2023/06/07 00:55:55;;;;;;;14.53;3.30;;;;;;;23.58;54.44;99810.25;5047681;28;20076;-60
2023/06/07 00:58:26;;;;;;;10.70;3.20;;;;;;;23.78;53.42;99815.88;5059401;28;20064;-59
2023/06/07 01:01:17;;;;;;;9.03;3.17;;;;;;;23.83;52.94;99803.03;5043518;28;20059;-59
2023/06/07 01:03:58;;;;;;;16.30;3.20;;;;;;;23.89;51.33;99805.22;5048179;28;20056;-59
2023/06/07 01:06:30;;;;;;;12.67;2.90;;;;;;;23.94;51.23;99808.38;5058295;28;20168;-61
2023/06/07 01:09:01;;;;;;;9.80;3.00;;;;;;;23.96;52.18;99801.06;5060318;28;20113;-61
2023/06/07 01:11:35;;;;;;;11.13;2.97;;;;;;;24.13;50.87;99802.41;5050212;28;20044;-60
2023/06/07 01:14:05;;;;;;;8.13;2.63;;;;;;;24.15;49.53;99811.13;5060468;28;20134;-60
2023/06/07 01:16:37;;;;;;;5.97;2.50;;;;;;;24.23;49.69;99808.69;5050212;28;20048;-61
2023/06/07 01:19:11;;;;;;;9.97;2.60;;;;;;;24.11;49.79;99805.22;5059837;28;20477;-60
2023/06/07 01:21:44;;;;;;;5.67;2.53;;;;;;;24.30;48.90;99814.41;5049687;28;20390;-60
2023/06/07 01:24:20;;;;;;;8.17;2.30;;;;;;;24.25;46.94;99816.59;5060404;28;20173;-61
2023/06/07 01:26:53;;;;;;;5.00;2.20;;;;;;;24.29;47.73;99812.72;5050815;28;20057;-59
2023/06/07 01:29:24;;;;;;;6.00;2.87;;;;;;;24.34;46.94;99815.84;5060197;28;20047;-59
2023/06/07 01:31:58;;;;;;;7.50;2.63;;;;;;;24.45;48.30;99813.19;5029369;28;20143;-59
2023/06/07 01:34:30;;;;;;;6.57;2.40;;;;;;;24.47;47.10;99805.91;5053012;28;20116;-61
2023/06/07 01:37:02;;;;;;;4.37;2.47;;;;;;;24.50;47.93;99784.28;5049517;28;20055;-59
2023/06/07 01:39:34;;;;;;;10.47;2.70;;;;;;;24.67;46.78;99811.44;5049103;28;20052;-61
2023/06/07 01:42:06;;;;;;;6.73;2.50;;;;;;;24.66;45.82;99815.06;5059942;28;20838;-60
2023/06/07 01:44:38;;;;;;;5.23;2.27;;;;;;;24.69;47.52;99806.81;5050192;28;20507;-59
2023/06/07 01:47:11;;;;;;;9.13;2.90;;;;;;;24.77;46.77;99806.19;5059745;28;20139;-59
2023/06/07 01:49:42;;;;;;;3.90;2.57;;;;;;;24.61;47.21;99801.22;5049281;28;20076;-62
2023/06/07 01:52:16;;;;;;;8.07;2.77;;;;;;;24.73;47.39;99810.91;5058798;28;20067;-61
2023/06/07 01:54:51;;;;;;;8.77;2.57;;;;;;;24.77;47.02;99801.69;5049065;28;20052;-61
2023/06/07 01:57:28;;;;;;;9.23;2.47;;;;;;;24.79;46.46;99801.53;5059688;28;20067;-61
2023/06/07 02:00:17;;;;;;;13.17;2.90;;;;;;;24.83;47.75;99795.81;5048205;28;20056;-61
2023/06/07 02:02:51;;;;;;;7.07;2.73;;;;;;;24.96;49.22;99796.50;5049131;28;20087;-59
2023/06/07 02:05:28;;;;;;;21.40;2.80;;;;;;;25.12;47.30;99800.56;5059640;28;20071;-60
2023/06/07 02:08:00;;;;;;;9.97;3.03;;;;;;;25.11;47.81;99798.84;5048262;28;20661;-59
2023/06/07 02:10:35;;;;;;;8.13;2.33;;;;;;;25.14;47.01;99798.59;5049617;28;20149;-60
2023/06/07 02:13:07;;;;;;;7.43;2.57;;;;;;;25.24;47.59;99802.22;5059137;28;20054;-60
2023/06/07 02:15:38;;;;;;;13.03;3.10;;;;;;;25.35;47.30;99794.13;5047458;28;20055;-61
2023/06/07 02:18:11;;;;;;;6.33;2.90;;;;;;;25.29;47.52;99791.97;5059184;28;20052;-60
2023/06/07 02:20:42;;;;;;;18.33;2.73;;;;;;;25.24;46.53;99794.19;5048918;28;20619;-61
2023/06/07 02:23:12;;;;;;;11.20;3.40;;;;;;;25.30;45.91;99796.34;5058718;28;20052;-60
2023/06/07 02:25:44;;;;;;;4.83;2.77;;;;;;;25.31;44.72;99790.03;5048483;28;20070;-59
2023/06/07 02:28:15;;;;;;;5.27;2.30;;;;;;;25.38;44.95;99793.84;5059245;28;20071;-58
2023/06/07 02:30:46;;;;;;;6.87;2.47;;;;;;;25.48;45.57;99788.56;5048616;28;20783;-60
2023/06/07 02:33:21;;;;;;;8.53;2.60;;;;;;;25.56;45.27;99787.88;5058310;28;20132;-60
2023/06/07 02:35:51;;;;;;;9.17;2.80;;;;;;;25.66;45.48;99794.16;5048690;28;20053;-59
2023/06/07 02:38:23;;;;;;;6.67;2.37;;;;;;;25.57;44.65;99784.25;5059404;28;20059;-60
2023/06/07 02:40:56;;;;;;;15.20;2.73;;;;;;;25.57;45.07;99779.75;5049064;28;20040;-58
2023/06/07 02:43:27;;;;;;;6.13;2.43;;;;;;;25.61;44.81;99780.34;5059032;28;20048;-59
2023/06/07 02:45:58;;;;;;;8.23;2.57;;;;;;;25.71;44.53;99781.22;5034644;28;20135;-59
2023/06/07 02:48:28;;;;;;;5.93;2.20;;;;;;;25.77;43.75;99769.97;5046712;28;20051;-60
2023/06/07 02:50:59;;;;;;;7.27;2.50;;;;;;;25.97;43.74;99778.13;5052362;28;20052;-60
2023/06/07 02:53:30;;;;;;;3.00;2.00;;;;;;;26.11;43.84;99780.41;5062652;28;20056;-58
2023/06/07 02:56:02;;;;;;;4.43;2.50;;;;;;;26.03;42.28;99780.22;5060171;28;20138;-60
2023/06/07 02:58:33;;;;;;;8.87;2.50;;;;;;;26.11;42.84;99767.03;5051928;28;20059;-59
2023/06/07 03:01:07;;;;;;;5.13;2.50;;;;;;;26.09;40.42;99762.81;5062937;28;20043;-60
2023/06/07 03:03:38;;;;;;;7.00;2.23;;;;;;;25.94;41.17;99759.66;5052379;28;20054;-59
2023/06/07 03:06:09;;;;;;;7.13;2.70;;;;;;;25.78;42.48;99765.47;5062831;28;20182;-60
2023/06/07 03:08:40;;;;;;;13.80;3.17;;;;;;;25.99;43.81;99758.25;5053080;28;20060;-59
2023/06/07 03:11:12;;;;;;;4.80;2.30;;;;;;;26.23;42.70;99760.59;5063239;28;20083;-59
2023/06/07 03:13:42;;;;;;;7.30;3.10;;;;;;;26.24;41.26;99766.78;5052263;28;20454;-60
2023/06/07 03:16:13;;;;;;;4.87;2.50;;;;;;;26.34;41.62;99761.44;5062757;28;20047;-60
2023/06/07 03:18:44;;;;;;;7.77;2.80;;;;;;;26.39;41.03;99761.88;5052016;28;20048;-60
2023/06/07 03:21:15;;;;;;;5.67;2.40;;;;;;;26.51;41.81;99763.44;5061986;28;20479;-61
2023/06/07 03:23:47;;;;;;;10.37;2.50;;;;;;;26.59;40.58;99762.78;5052372;28;20052;-60
2023/06/07 03:26:19;;;;;;;10.33;2.57;;;;;;;26.60;40.44;99759.94;5043205;28;20923;-62
2023/06/07 03:28:49;;;;;;;7.73;2.80;;;;;;;26.73;40.66;99764.16;5039322;28;20141;-61
2023/06/07 03:31:20;;;;;;;14.00;2.40;;;;;;;26.86;41.17;99762.06;5052762;28;20083;-60
2023/06/07 03:33:51;;;;;;;13.30;2.80;;;;;;;26.96;41.51;99768.28;5043402;28;20056;-59
2023/06/07 03:36:25;;;;;;;10.77;2.67;;;;;;;27.05;41.11;99767.38;5052076;28;20455;-60
2023/06/07 03:38:56;;;;;;;5.67;2.17;;;;;;;27.21;40.45;99765.97;5051618;28;20500;-62
2023/06/07 03:41:28;;;;;;;5.63;1.90;;;;;;;27.08;40.50;99782.34;5063175;28;20149;-59
2023/06/07 03:43:59;;;;;;;6.20;1.97;;;;;;;26.81;39.85;99780.38;5029605;28;20049;-61
2023/06/07 03:46:29;;;;;;;9.63;2.40;;;;;;;26.58;40.30;99775.28;5045060;28;20070;-60
2023/06/07 03:49:00;;;;;;;6.90;2.37;;;;;;;26.70;38.44;99783.22;5052029;28;20087;-64
2023/06/07 03:51:32;;;;;;;5.00;3.10;;;;;;;26.63;40.65;99773.06;5045503;28;20130;-62
2023/06/07 03:54:02;;;;;;;10.47;2.70;;;;;;;26.68;40.70;99776.19;5051645;28;20137;-63
2023/06/07 03:56:34;;;;;;;5.27;2.40;;;;;;;25.93;41.60;99774.00;5041907;28;20470;-61
2023/06/07 03:59:06;;;;;;;5.53;2.50;;;;;;;25.18;44.26;99781.34;5051660;28;20146;-61
2023/06/07 04:01:37;;;;;;;7.93;2.00;;;;;;;24.55;44.31;99775.88;5042015;28;20481;-63
2023/06/07 04:04:09;;;;;;;15.73;2.20;;;;;;;23.72;45.21;99744.31;5051714;28;20056;-63
2023/06/07 04:06:40;;;;;;;3.83;1.73;;;;;;;23.39;46.73;99791.34;5041468;28;20562;-62
2023/06/07 04:09:10;;;;;;;4.40;1.90;;;;;;;22.43;49.71;99727.53;5051681;28;20408;-63
2023/06/07 04:11:43;;;;;;;5.20;2.00;;;;;;;22.63;50.70;99804.09;5041840;28;20096;-60
2023/06/07 04:14:13;;;;;;;5.83;1.70;;;;;;;22.49;50.45;99790.94;5041092;28;20044;-63
2023/06/07 04:16:44;;;;;;;3.50;1.77;;;;;;;22.40;50.74;99792.47;5045492;28;20498;-63
2023/06/07 04:19:15;;;;;;;4.73;2.17;;;;;;;22.70;51.55;99784.03;5061415;28;20567;-65
2023/06/07 04:21:46;;;;;;;4.07;1.50;;;;;;;23.05;50.05;99799.22;5047527;28;20071;-64
2023/06/07 04:24:18;;;;;;;4.97;1.63;;;;;;;23.17;51.34;99803.63;5061267;28;20056;-64
2023/06/07 04:26:53;;;;;;;5.07;1.60;;;;;;;23.25;50.09;99793.22;5051036;28;20136;-63
2023/06/07 04:29:25;;;;;;;2.43;1.30;;;;;;;22.95;50.67;99793.72;5061308;28;20133;-62
2023/06/07 04:31:56;;;;;;;3.80;1.30;;;;;;;22.87;51.12;99798.78;5030900;28;20230;-63
2023/06/07 04:34:28;;;;;;;2.43;1.47;;;;;;;22.71;50.79;99791.06;5052560;28;20048;-62
2023/06/07 04:36:58;;;;;;;3.13;1.60;;;;;;;22.56;51.45;99792.19;5050894;28;20059;-66
2023/06/07 04:39:29;;;;;;;6.23;2.00;;;;;;;22.08;52.43;99753.06;5060397;28;20395;-61
2023/06/07 04:42:03;;;;;;;8.07;2.27;;;;;;;22.49;53.40;99802.47;5030922;28;20052;-66
2023/06/07 04:44:37;;;;;;;5.00;2.07;;;;;;;22.67;53.47;99786.94;5029300;28;20056;-64
2023/06/07 04:47:08;;;;;;;4.80;1.70;;;;;;;22.59;52.68;99786.66;5059935;28;20460;-61
2023/06/07 04:49:41;;;;;;;3.70;1.90;;;;;;;22.56;53.36;99798.38;5050312;28;20135;-61
2023/06/07 04:52:13;;;;;;;4.53;2.20;;;;;;;22.74;52.49;99790.84;5060724;28;20044;-62
2023/06/07 04:54:46;;;;;;;3.43;1.80;;;;;;;22.93;52.53;99792.13;5050235;28;20098;-62
2023/06/07 04:57:19;;;;;;;2.97;1.70;;;;;;;23.05;52.32;99772.59;5060849;28;20152;-64
2023/06/07 04:59:51;;;;;;;6.30;2.27;;;;;;;23.56;51.45;99788.16;5050423;28;20131;-64
2023/06/07 05:02:21;;;;;;;7.20;2.10;;;;;;;23.83;51.36;99795.03;5061069;28;20052;-62
2023/06/07 05:04:53;;;;;;;4.33;2.20;;;;;;;24.09;50.67;99801.81;5050542;28;20059;-61
2023/06/07 05:07:27;;;;;;;4.93;2.20;;;;;;;24.16;49.47;99795.97;5059778;28;20138;-60
2023/06/07 05:09:58;;;;;;;5.50;2.17;;;;;;;24.32;49.28;99804.44;5049312;28;20378;-65
2023/06/07 05:12:30;;;;;;;5.13;2.07;;;;;;;24.31;49.27;99800.06;5059598;28;20048;-63
2023/06/07 05:15:01;;;;;;;2.73;1.87;;;;;;;24.45;49.71;99791.81;5030105;28;20048;-64
2023/06/07 05:17:32;;;;;;;5.20;1.60;;;;;;;24.49;48.50;99795.94;5040211;28;20048;-64
2023/06/07 05:20:05;;;;;;;3.67;1.50;;;;;;;24.40;47.91;99782.47;5050955;28;20367;-64
2023/06/07 05:22:36;;;;;;;6.23;2.50;;;;;;;24.21;49.65;99788.44;5040454;28;20048;-63
2023/06/07 05:25:08;;;;;;;5.00;1.90;;;;;;;24.16;48.70;99790.63;5050650;28;20079;-63
2023/06/07 05:27:41;;;;;;;4.93;1.73;;;;;;;24.21;48.23;99783.09;5039583;28;20084;-64
2023/06/07 05:30:13;;;;;;;3.93;1.80;;;;;;;24.40;46.62;99783.31;5050364;28;20534;-67
2023/06/07 05:32:43;;;;;;;4.20;1.97;;;;;;;24.67;46.92;99784.72;5041593;28;20938;-62
2023/06/07 05:35:14;;;;;;;7.37;2.20;;;;;;;24.85;47.30;99780.50;5050879;28;20044;-62
2023/06/07 05:37:45;;;;;;;4.73;1.83;;;;;;;24.72;45.71;99766.47;5039814;28;20711;-66
2023/06/07 05:40:17;;;;;;;3.77;2.07;;;;;;;24.62;45.63;99774.41;5050535;28;20530;-62
2023/06/07 05:42:50;;;;;;;4.67;1.83;;;;;;;24.60;46.04;99770.16;5039662;28;20230;-61
2023/06/07 05:45:20;;;;;;;3.77;2.10;;;;;;;24.52;47.70;99766.31;5050169;28;20071;-61
2023/06/07 05:47:51;;;;;;;5.27;2.10;;;;;;;24.51;48.07;99769.97;5040806;28;20121;-63
2023/06/07 05:50:23;;;;;;;6.73;2.47;;;;;;;24.83;46.95;99769.09;5050676;28;20044;-61
2023/06/07 05:52:56;;;;;;;5.07;2.13;;;;;;;24.78;46.12;99755.28;5039442;28;20057;-66
2023/06/07 05:55:30;;;;;;;3.20;2.10;;;;;;;25.00;46.37;99753.47;5050450;28;20110;-61
2023/06/07 05:58:03;;;;;;;7.40;1.90;;;;;;;25.27;46.04;99761.84;5030543;28;20122;-63
2023/06/07 06:00:36;;;;;;;6.00;2.40;;;;;;;25.41;46.34;99763.34;5048643;28;20101;-62
2023/06/07 06:03:08;;;;;;;5.60;1.90;;;;;;;25.50;45.65;99761.69;5058879;28;20060;-65
2023/06/07 06:05:38;;;;;;;3.97;2.30;;;;;;;25.63;45.74;99751.59;5048610;28;20113;-65
2023/06/07 06:08:09;;;;;;;5.87;2.40;;;;;;;25.65;44.85;99754.16;5059006;28;20071;-59
2023/06/07 06:10:40;;;;;;;3.43;2.10;;;;;;;25.52;43.27;99762.41;5048311;28;20076;-62
2023/06/07 06:13:12;;;;;;;6.23;2.67;;;;;;;25.29;44.99;99765.25;5058783;28;20881;-60
2023/06/07 06:15:43;;;;;;;6.10;2.47;;;;;;;25.18;46.24;99762.63;5048076;28;20040;-64
2023/06/07 06:18:13;;;;;;;4.17;2.23;;;;;;;25.21;46.64;99767.72;5058426;28;20086;-62
2023/06/07 06:20:45;;;;;;;6.90;2.27;;;;;;;25.08;46.80;99772.38;5048776;28;20728;-63
2023/06/07 06:23:15;;;;;;;8.97;2.53;;;;;;;24.49;47.55;99776.41;5052461;28;20052;-62
2023/06/07 06:25:47;;;;;;;14.83;2.67;;;;;;;23.95;48.60;99767.38;5038168;28;20051;-65
2023/06/07 06:28:22;;;;;;;10.93;2.87;;;;;;;23.53;50.46;99764.41;5059197;28;20071;-63
2023/06/07 06:30:55;;;;;;;21.67;3.33;;;;;;;23.37;50.64;99762.13;5048625;28;20566;-65
2023/06/07 06:33:27;;;;;;;12.63;3.30;;;;;;;23.07;50.88;99765.31;5059047;28;20051;-65
2023/06/07 06:35:59;;;;;;;9.17;2.80;;;;;;;22.68;51.88;99770.00;5048808;28;20192;-65
2023/06/07 06:38:31;;;;;;;25.90;2.90;;;;;;;22.29;52.72;99774.66;5053630;28;20764;-62
2023/06/07 06:41:05;;;;;;;14.40;3.37;;;;;;;22.01;54.19;99780.22;5058823;28;20063;-65
2023/06/07 06:43:40;;;;;;;15.50;3.40;;;;;;;21.80;55.30;99772.81;5047517;28;20398;-64
2023/06/07 06:46:12;;;;;;;23.67;4.13;;;;;;;21.74;55.35;99781.19;5058916;28;20079;-63
2023/06/07 06:48:48;;;;;;;10.50;3.10;;;;;;;21.70;56.28;99777.06;5045312;28;20082;-63
2023/06/07 06:51:40;;;;;;;14.60;4.00;;;;;;;21.52;57.22;99780.06;5047153;28;20329;-65
2023/06/07 06:54:15;;;;;;;13.00;4.00;;;;;;;21.39;57.78;99776.56;5057762;28;20335;-63
2023/06/07 06:56:46;;;;;;;23.23;3.90;;;;;;;21.35;58.36;99783.00;5048097;28;20289;-64
2023/06/07 06:59:21;;;;;;;23.07;4.00;;;;;;;21.19;59.15;99779.69;5058761;28;20750;-63
2023/06/07 07:01:54;;;;;;;17.43;3.90;;;;;;;21.04;60.25;99778.91;5047745;28;20362;-65
2023/06/07 07:04:26;;;;;;;10.03;3.30;;;;;;;20.93;60.58;99787.63;5058730;28;20297;-65
2023/06/07 07:06:59;;;;;;;27.73;3.90;;;;;;;20.84;61.37;99788.22;5047640;28;20296;-63
2023/06/07 07:09:33;;;;;;;16.73;4.17;;;;;;;20.74;61.24;99797.75;5047395;28;20302;-65
2023/06/07 07:12:05;;;;;;;16.37;4.03;;;;;;;20.55;61.43;99793.66;5058278;28;20282;-63
2023/06/07 07:14:40;;;;;;;9.03;3.20;;;;;;;20.40;61.52;99799.94;5048720;28;20890;-62
2023/06/07 07:17:15;;;;;;;22.33;4.30;;;;;;;20.22;62.21;99784.25;5041309;28;20294;-66
2023/06/07 07:19:46;;;;;;;17.47;3.30;;;;;;;20.25;61.82;99799.97;5046385;28;20294;-64
2023/06/07 07:22:17;;;;;;;26.57;5.63;;;;;;;19.88;61.91;99761.66;5058269;28;20809;-64
2023/06/07 07:24:50;;;;;;;13.20;3.80;;;;;;;19.60;62.17;99730.69;5047758;28;20282;-63
2023/06/07 07:27:23;;;;;;;31.03;4.53;;;;;;;20.03;62.47;99802.28;5058368;28;20274;-65
2023/06/07 07:30:00;;;;;;;16.30;4.07;;;;;;;20.15;61.78;99824.53;5048124;28;20289;-66
2023/06/07 07:32:34;;;;;;;9.70;3.83;;;;;;;20.16;62.08;99824.41;5052288;28;20321;-61
2023/06/07 07:35:06;;;;;;;18.77;4.23;;;;;;;20.12;62.51;99828.22;5061951;28;20339;-60
2023/06/07 07:37:38;;;;;;;16.00;4.53;;;;;;;20.06;65.20;99825.94;5051497;28;20326;-61
2023/06/07 07:40:10;;;;;;;26.67;4.97;;;;;;;19.93;66.11;99830.31;5062172;28;20373;-61
2023/06/07 07:42:40;;;;;;;21.37;5.00;;;;;;;19.72;68.11;99820.09;5051345;28;20320;-60
2023/06/07 07:45:14;;;;;;;16.17;4.50;;;;;;;19.66;68.88;99822.22;5062099;28;20369;-63
2023/06/07 07:47:46;;;;;;;14.27;5.00;;;;;;;19.88;72.53;99829.75;5052004;28;20291;-59
2023/06/07 07:50:18;;;;;;;22.93;4.63;;;;;;;19.81;76.30;99840.72;5062089;28;20282;-63
2023/06/07 07:52:48;;;;;;;19.00;4.97;;;;;;;19.72;77.38;99836.00;5051281;28;20790;-62
2023/06/07 07:55:19;;;;;;;12.97;4.83;;;;;;;19.71;76.77;99844.88;5061834;28;20425;-63
2023/06/07 07:57:49;;;;;;;8.30;3.80;;;;;;;19.65;76.29;99850.53;5050900;28;20330;-62
2023/06/07 08:00:23;;;;;;;11.90;4.17;;;;;;;19.64;75.62;99847.97;5061855;28;20331;-61
2023/06/07 08:02:54;;;;;;;11.70;3.53;;;;;;;19.54;75.88;99847.66;5051109;28;20293;-60
2023/06/07 08:05:24;;;;;;;10.10;5.37;;;;;;;19.59;78.71;99858.84;5062037;28;20290;-63
2023/06/07 08:07:55;;;;;;;10.03;5.17;;;;;;;19.56;81.09;99830.72;5050578;28;20830;-63
2023/06/07 08:10:26;;;;;;;17.13;4.83;;;;;;;19.78;80.72;99856.81;5061975;28;20274;-62
2023/06/07 08:12:57;;;;;;;11.17;4.47;;;;;;;19.83;81.00;99860.03;5032034;28;20380;-61
2023/06/07 08:15:31;;;;;;;11.10;4.00;;;;;;;19.82;79.01;99868.09;5042429;28;20633;-60
2023/06/07 08:18:02;;;;;;;8.87;4.60;;;;;;;19.87;80.12;99870.44;5039113;28;20366;-63
2023/06/07 08:20:32;;;;;;;11.13;4.40;;;;;;;19.76;77.89;99866.66;5031776;28;21419;-64
2023/06/07 08:23:03;;;;;;;9.93;4.17;;;;;;;19.70;77.65;99864.41;5059816;28;20293;-64
2023/06/07 08:25:33;;;;;;;10.20;4.43;;;;;;;19.60;77.45;99873.81;5051205;28;20286;-60
2023/06/07 08:28:04;;;;;;;8.33;3.97;;;;;;;19.43;77.66;99882.75;5061293;28;20279;-61
2023/06/07 08:30:36;;;;;;;11.57;3.90;;;;;;;19.32;77.39;99885.16;5050659;28;20347;-62
2023/06/07 08:33:07;;;;;;;10.10;3.23;;;;;;;19.21;79.09;99875.22;5061297;28;20692;-61
2023/06/07 08:35:38;;;;;;;7.77;3.77;;;;;;;19.22;79.68;99878.72;5051536;28;20361;-62
2023/06/07 08:38:08;;;;;;;6.30;3.67;;;;;;;19.20;80.48;99892.06;5061290;28;20355;-61
2023/06/07 08:40:39;;;;;;;10.03;3.97;;;;;;;19.00;81.05;99874.69;5050622;28;20329;-63
2023/06/07 08:43:10;;;;;;;11.30;4.30;;;;;;;18.90;81.66;99890.22;5060798;28;20328;-62
2023/06/07 08:45:42;;;;;;;6.43;3.60;;;;;;;18.71;81.08;99893.00;5050796;28;20286;-64
2023/06/07 08:48:15;;;;;;;7.10;4.13;;;;;;;18.59;80.16;99892.84;5060486;28;20378;-62
2023/06/07 08:50:48;;;;;;;7.70;3.70;;;;;;;18.48;79.81;99878.44;5050912;28;20290;-61
2023/06/07 08:53:32;;;;;;;11.13;4.07;;;;;;;18.53;80.20;99901.97;5041630;28;20297;-65
2023/06/07 08:56:03;;;;;;;8.70;3.57;;;;;;;18.41;80.04;99882.34;5029305;28;20641;-65
2023/06/07 08:58:34;;;;;;;6.47;3.93;;;;;;;18.47;80.71;99889.97;5029459;28;20635;-64
2023/06/07 09:01:11;;;;;;;7.27;3.40;;;;;;;18.45;80.93;99889.19;5039161;28;20372;-64
2023/06/07 09:04:34;;;;;;;10.20;4.03;;;;;;;18.51;80.37;99896.75;5030478;28;20447;-62
2023/06/07 09:07:11;;;;;;;7.87;3.93;;;;;;;18.71;78.52;99900.09;5036866;28;20297;-64
2023/06/07 09:09:44;;;;;;;7.33;3.80;;;;;;;19.03;78.01;99889.53;5041007;28;20960;-64
2023/06/07 09:12:18;;;;;;;9.67;4.20;;;;;;;19.44;79.19;99907.44;5051017;28;20301;-61
2023/06/07 09:14:50;;;;;;;13.40;4.47;;;;;;;19.51;79.59;99892.91;5040721;28;20775;-65
2023/06/07 09:17:22;;;;;;;6.50;3.97;;;;;;;19.62;79.92;99909.03;5050746;28;20290;-63
2023/06/07 09:20:03;;;;;;;9.90;4.00;;;;;;;19.53;79.32;99888.38;5039830;28;20308;-61
2023/06/07 09:22:38;;;;;;;8.20;4.27;;;;;;;19.62;78.92;99909.03;5039841;28;20337;-63
2023/06/07 09:25:17;;;;;;;15.18;5.20;;;;;;;19.58;78.94;99907.50;5050590;28;20385;-63
2023/06/07 09:27:52;;;;;;;6.67;4.20;;;;;;;19.40;79.00;99905.00;5040067;28;20063;-63
2023/06/07 09:30:27;;;;;;;9.33;4.63;;;;;;;19.43;79.17;99911.06;5051049;28;20291;-63
2023/06/07 09:33:00;;;;;;;11.13;4.00;;;;;;;19.38;79.40;99917.47;5048007;28;20936;-64
2023/06/07 09:35:32;;;;;;;12.73;3.90;;;;;;;19.32;78.74;99922.25;5051122;28;20839;-62
2023/06/07 09:38:06;;;;;;;7.97;3.47;;;;;;;19.25;78.01;99932.38;5058596;28;20768;-62
2023/06/07 09:40:38;;;;;;;12.43;4.33;;;;;;;19.22;78.32;99932.56;5048718;28;20306;-64
2023/06/07 09:43:11;;;;;;;9.50;3.87;;;;;;;19.10;77.97;99935.91;5059032;28;20280;-65
2023/06/07 09:45:56;;;;;;;7.23;3.90;;;;;;;18.79;78.26;99940.25;5048618;28;20290;-65
2023/06/07 09:48:44;;;;;;;12.33;4.53;;;;;;;18.61;79.28;99930.66;5056976;28;20675;-65
2023/06/07 09:51:19;;;;;;;5.82;3.95;;;;;;;18.43;80.21;99912.22;5058117;28;20270;-62
2023/06/07 09:54:09;;;;;;;7.50;4.10;;;;;;;18.63;81.92;99950.81;5047407;28;20068;-63
2023/06/07 09:56:42;;;;;;;8.60;4.15;;;;;;;18.43;83.51;99943.97;5048338;28;20286;-64
2023/06/07 09:59:25;;;;;;;6.87;4.20;;;;;;;18.27;84.74;99953.63;5058143;28;20570;-64
2023/06/07 10:01:56;;;;;;;9.23;4.33;;;;;;;18.16;85.63;99961.31;5048167;28;20316;-62
2023/06/07 10:04:51;;;;;;;9.77;4.40;;;;;;;17.88;86.75;99957.44;5058520;28;20792;-63
2023/06/07 10:07:40;;;;;;;9.57;5.10;;;;;;;17.69;87.93;99968.91;4977023;28;20276;-61
2023/06/07 10:10:14;;;;;;;9.00;4.63;;;;;;;17.54;89.32;99969.69;4987020;28;20316;-64
2023/06/07 10:12:48;;;;;;;102.27;36.07;;;;;;;17.35;90.17;99974.19;4977567;28;20545;-63
2023/06/07 10:15:25;;;;;;;616.53;373.20;;;;;;;17.18;90.56;99983.78;4986854;28;20286;-62
2023/06/07 10:18:02;;;;;;;432.87;243.20;;;;;;;16.98;90.54;99983.88;4969415;28;21152;-61
2023/06/07 10:20:41;;;;;;;98.37;56.30;;;;;;;16.77;90.48;99989.19;4977739;28;20277;-61
2023/06/07 10:23:16;;;;;;;17.02;7.55;;;;;;;16.34;90.55;99937.53;4986727;28;20968;-62
2023/06/07 10:25:54;;;;;;;9.17;4.33;;;;;;;16.49;90.54;99994.00;4976755;28;20125;-62
2023/06/07 10:28:34;;;;;;;7.23;5.07;;;;;;;16.24;90.76;99984.53;4987073;28;20288;-63
2023/06/07 10:31:09;;;;;;;9.00;4.43;;;;;;;15.81;91.44;99954.78;4977229;28;20391;-60
2023/06/07 10:33:41;;;;;;;6.27;4.70;;;;;;;16.04;91.80;99992.47;4977450;28;20285;-61
2023/06/07 10:36:15;;;;;;;8.60;5.17;;;;;;;15.82;91.56;99985.47;4986467;28;20360;-60
2023/06/07 10:38:48;;;;;;;9.30;5.60;;;;;;;15.78;91.65;99986.56;4977418;28;20861;-61
2023/06/07 10:41:20;;;;;;;6.57;4.13;;;;;;;15.74;91.38;99995.50;4987696;28;20879;-63
2023/06/07 10:43:52;;;;;;;9.17;4.33;;;;;;;15.51;90.93;100009.59;4978075;28;20345;-63
2023/06/07 10:46:25;;;;;;;14.87;3.90;;;;;;;15.33;91.42;100005.94;5058835;28;20297;-62
2023/06/07 10:48:59;;;;;;;5.20;3.90;;;;;;;15.06;92.22;99992.94;5029474;28;20597;-63
2023/06/07 10:52:14;;;;;;;9.30;5.10;;;;;;;14.99;92.51;100016.91;5048982;28;20279;-64
2023/06/07 10:54:52;;;;;;;11.33;3.30;;;;;;;14.77;92.93;100016.88;5049046;28;20320;-60
2023/06/07 10:57:37;;;;;;;6.20;3.07;;;;;;;14.64;93.13;100017.31;5062465;28;20282;-61
2023/06/07 11:00:31;;;;;;;6.50;3.50;;;;;;;14.57;93.83;100026.34;5046570;28;20377;-58
2023/06/07 11:03:43;;;;;;;8.03;3.27;;;;;;;14.66;93.95;100036.53;5049688;28;20752;-59
2023/06/07 11:06:14;;;;;;;4.73;3.20;;;;;;;14.66;93.61;100044.41;5039393;28;20293;-58
2023/06/07 11:08:47;;;;;;;4.67;2.67;;;;;;;14.48;93.17;100021.41;5055926;28;21141;-60
2023/06/07 11:11:50;;;;;;;8.80;3.23;;;;;;;14.58;93.48;100046.47;5063209;28;20290;-60
2023/06/07 11:14:24;;;;;;;7.03;4.03;;;;;;;14.59;93.45;100056.06;5066708;28;20294;-59
2023/06/07 11:16:55;;;;;;;9.83;3.77;;;;;;;14.33;93.99;99995.69;5056180;28;20278;-60
2023/06/07 11:19:55;;;;;;;5.73;3.83;;;;;;;14.56;94.53;100061.44;5064116;28;20314;-61
2023/06/07 11:22:26;;;;;;;7.17;3.83;;;;;;;14.50;94.89;100059.00;5046901;28;21007;-59
2023/06/07 11:25:14;;;;;;;9.13;4.27;;;;;;;14.36;94.91;100059.50;5036022;28;20298;-61
2023/06/07 11:27:54;;;;;;;9.13;3.80;;;;;;;14.39;95.36;100066.41;5048565;28;20379;-62
2023/06/07 11:30:24;;;;;;;;;;;;;;;14.36;95.40;100069.16;5067184;28;20478;-61
2023/06/07 11:32:57;;;;;;;5.53;3.47;;;;;;;14.32;94.88;100078.06;5044166;28;19931;-62
2023/06/07 11:35:31;;;;;;;7.88;3.85;;;;;;;14.29;95.12;100080.78;5047402;28;20052;-61
2023/06/07 11:38:05;;;;;;;9.67;3.70;;;;;;;14.11;94.71;100064.75;5036360;28;20051;-60
2023/06/07 11:40:38;;;;;;;10.07;3.63;;;;;;;14.15;95.28;100087.38;5035943;28;20340;-61
2023/06/07 11:43:16;;;;;;;5.57;3.33;;;;;;;14.09;95.69;100092.84;5065239;28;20286;-61
2023/06/07 11:45:47;;;;;;;11.95;3.55;;;;;;;14.05;95.56;100085.94;5055656;28;20278;-60
2023/06/07 11:48:19;;;;;;;7.60;3.75;;;;;;;14.03;95.59;100091.28;5065729;28;20048;-62
2023/06/07 11:50:49;;;;;;;6.78;4.22;;;;;;;13.96;95.21;100089.75;5043254;28;20441;-61
2023/06/07 11:53:21;;;;;;;7.70;3.95;;;;;;;13.88;95.30;100075.16;5046161;28;20049;-62
2023/06/07 11:55:58;;;;;;;10.55;4.25;;;;;;;14.00;95.41;100090.50;5035646;28;20044;-61
2023/06/07 11:58:31;;;;;;;9.00;3.95;;;;;;;13.62;95.41;100024.34;5045592;28;20059;-62